sensor_id;sensor_type;location;lat;lon;timestamp;P1;durP1;ratioP1;P2;durP2;ratioP2
25549;SDS011;13444;50.562;7.262;2023-04-10T00:00:23;15.27;;;9.47;;
25549;SDS011;13444;50.562;7.262;2023-04-10T00:02:49;21.17;;;12.00;;
25549;SDS011;13444;50.562;7.262;2023-04-10T00:05:14;22.47;;;12.17;;
25549;SDS011;13444;50.562;7.262;2023-04-10T00:07:40;15.00;;;10.03;;
25549;SDS011;13444;50.562;7.262;2023-04-10T00:10:06;12.67;;;9.30;;
25549;SDS011;13444;50.562;7.262;2023-04-10T00:12:32;14.23;;;9.30;;
25549;SDS011;13444;50.562;7.262;2023-04-10T00:14:59;12.30;;;8.97;;
25549;SDS011;13444;50.562;7.262;2023-04-10T00:17:25;14.53;;;8.40;;
25549;SDS011;13444;50.562;7.262;2023-04-10T00:19:50;12.80;;;8.63;;
25549;SDS011;13444;50.562;7.262;2023-04-10T00:22:16;14.50;;;8.80;;
25549;SDS011;13444;50.562;7.262;2023-04-10T00:24:41;15.67;;;10.23;;
25549;SDS011;13444;50.562;7.262;2023-04-10T00:27:07;13.43;;;8.90;;
25549;SDS011;13444;50.562;7.262;2023-04-10T00:29:32;12.00;;;9.03;;
25549;SDS011;13444;50.562;7.262;2023-04-10T00:31:58;12.87;;;9.40;;
25549;SDS011;13444;50.562;7.262;2023-04-10T00:34:23;12.90;;;9.80;;
25549;SDS011;13444;50.562;7.262;2023-04-10T00:36:49;14.53;;;9.87;;
25549;SDS011;13444;50.562;7.262;2023-04-10T00:39:15;13.37;;;9.73;;
25549;SDS011;13444;50.562;7.262;2023-04-10T00:41:40;15.07;;;9.70;;
25549;SDS011;13444;50.562;7.262;2023-04-10T00:44:06;15.33;;;10.23;;
25549;SDS011;13444;50.562;7.262;2023-04-10T00:46:32;13.33;;;10.43;;
25549;SDS011;13444;50.562;7.262;2023-04-10T00:48:59;12.10;;;9.20;;
25549;SDS011;13444;50.562;7.262;2023-04-10T00:51:25;13.77;;;9.10;;
25549;SDS011;13444;50.562;7.262;2023-04-10T00:53:51;12.27;;;8.90;;
25549;SDS011;13444;50.562;7.262;2023-04-10T00:56:17;11.27;;;9.20;;
25549;SDS011;13444;50.562;7.262;2023-04-10T00:58:44;12.60;;;9.10;;
25549;SDS011;13444;50.562;7.262;2023-04-10T01:01:10;13.97;;;9.57;;
25549;SDS011;13444;50.562;7.262;2023-04-10T01:03:36;11.23;;;8.83;;
25549;SDS011;13444;50.562;7.262;2023-04-10T01:08:52;10.70;;;8.40;;
25549;SDS011;13444;50.562;7.262;2023-04-10T01:11:38;12.27;;;7.97;;
25549;SDS011;13444;50.562;7.262;2023-04-10T01:17:36;12.43;;;8.43;;
25549;SDS011;13444;50.562;7.262;2023-04-10T01:20:21;11.13;;;8.10;;
25549;SDS011;13444;50.562;7.262;2023-04-10T01:23:11;11.00;;;8.13;;
25549;SDS011;13444;50.562;7.262;2023-04-10T01:26:03;10.50;;;8.23;;
25549;SDS011;13444;50.562;7.262;2023-04-10T01:31:04;9.90;;;7.30;;
25549;SDS011;13444;50.562;7.262;2023-04-10T01:33:34;12.00;;;8.43;;
25549;SDS011;13444;50.562;7.262;2023-04-10T01:36:07;11.53;;;8.20;;
25549;SDS011;13444;50.562;7.262;2023-04-10T01:38:34;12.77;;;8.73;;
25549;SDS011;13444;50.562;7.262;2023-04-10T01:41:00;12.23;;;8.37;;
25549;SDS011;13444;50.562;7.262;2023-04-10T01:43:26;13.90;;;8.77;;
25549;SDS011;13444;50.562;7.262;2023-04-10T01:45:55;11.07;;;8.50;;
25549;SDS011;13444;50.562;7.262;2023-04-10T01:48:22;10.57;;;7.43;;
25549;SDS011;13444;50.562;7.262;2023-04-10T01:50:48;13.17;;;8.43;;
25549;SDS011;13444;50.562;7.262;2023-04-10T01:53:16;11.17;;;7.87;;
25549;SDS011;13444;50.562;7.262;2023-04-10T01:55:42;9.90;;;7.20;;
25549;SDS011;13444;50.562;7.262;2023-04-10T01:58:08;9.80;;;8.03;;
25549;SDS011;13444;50.562;7.262;2023-04-10T02:00:37;9.40;;;7.90;;
25549;SDS011;13444;50.562;7.262;2023-04-10T02:03:07;11.70;;;8.40;;
25549;SDS011;13444;50.562;7.262;2023-04-10T02:05:40;11.67;;;8.73;;
25549;SDS011;13444;50.562;7.262;2023-04-10T02:08:56;12.33;;;9.03;;
25549;SDS011;13444;50.562;7.262;2023-04-10T02:11:09;13.87;;;9.23;;
25549;SDS011;13444;50.562;7.262;2023-04-10T02:13:39;11.47;;;8.20;;
25549;SDS011;13444;50.562;7.262;2023-04-10T02:16:06;11.47;;;7.90;;
25549;SDS011;13444;50.562;7.262;2023-04-10T02:18:35;10.47;;;8.00;;
25549;SDS011;13444;50.562;7.262;2023-04-10T02:21:02;9.97;;;8.17;;
25549;SDS011;13444;50.562;7.262;2023-04-10T02:23:28;14.73;;;8.80;;
25549;SDS011;13444;50.562;7.262;2023-04-10T02:25:53;11.03;;;7.97;;
25549;SDS011;13444;50.562;7.262;2023-04-10T02:28:22;13.20;;;8.23;;
25549;SDS011;13444;50.562;7.262;2023-04-10T02:30:48;14.57;;;9.40;;
25549;SDS011;13444;50.562;7.262;2023-04-10T02:33:13;13.13;;;9.50;;
25549;SDS011;13444;50.562;7.262;2023-04-10T02:35:39;12.50;;;9.73;;
25549;SDS011;13444;50.562;7.262;2023-04-10T02:38:04;12.60;;;9.37;;
25549;SDS011;13444;50.562;7.262;2023-04-10T02:40:30;11.83;;;9.07;;
25549;SDS011;13444;50.562;7.262;2023-04-10T02:42:55;14.13;;;10.03;;
25549;SDS011;13444;50.562;7.262;2023-04-10T02:45:21;13.70;;;9.83;;
25549;SDS011;13444;50.562;7.262;2023-04-10T02:47:46;14.00;;;9.27;;
25549;SDS011;13444;50.562;7.262;2023-04-10T02:50:12;12.40;;;9.23;;
25549;SDS011;13444;50.562;7.262;2023-04-10T02:52:37;15.57;;;10.30;;
25549;SDS011;13444;50.562;7.262;2023-04-10T02:55:05;15.90;;;10.80;;
25549;SDS011;13444;50.562;7.262;2023-04-10T02:57:31;14.43;;;10.40;;
25549;SDS011;13444;50.562;7.262;2023-04-10T02:59:56;13.03;;;9.90;;
25549;SDS011;13444;50.562;7.262;2023-04-10T03:02:22;14.40;;;9.60;;
25549;SDS011;13444;50.562;7.262;2023-04-10T03:04:47;15.43;;;10.07;;
25549;SDS011;13444;50.562;7.262;2023-04-10T03:07:13;15.20;;;10.43;;
25549;SDS011;13444;50.562;7.262;2023-04-10T03:09:38;13.93;;;9.80;;
25549;SDS011;13444;50.562;7.262;2023-04-10T03:12:04;15.47;;;11.07;;
25549;SDS011;13444;50.562;7.262;2023-04-10T03:14:30;17.20;;;10.43;;
25549;SDS011;13444;50.562;7.262;2023-04-10T03:16:55;14.63;;;10.20;;
25549;SDS011;13444;50.562;7.262;2023-04-10T03:19:21;12.57;;;9.83;;
25549;SDS011;13444;50.562;7.262;2023-04-10T03:21:47;13.80;;;9.77;;
25549;SDS011;13444;50.562;7.262;2023-04-10T03:24:12;12.93;;;9.03;;
25549;SDS011;13444;50.562;7.262;2023-04-10T03:26:38;13.07;;;9.53;;
25549;SDS011;13444;50.562;7.262;2023-04-10T03:29:03;14.63;;;10.13;;
25549;SDS011;13444;50.562;7.262;2023-04-10T03:31:29;13.60;;;9.77;;
25549;SDS011;13444;50.562;7.262;2023-04-10T03:33:55;13.07;;;9.37;;
25549;SDS011;13444;50.562;7.262;2023-04-10T03:36:20;12.87;;;9.93;;
25549;SDS011;13444;50.562;7.262;2023-04-10T03:38:46;13.90;;;9.87;;
25549;SDS011;13444;50.562;7.262;2023-04-10T03:41:11;16.30;;;9.43;;
25549;SDS011;13444;50.562;7.262;2023-04-10T03:43:37;16.23;;;10.20;;
25549;SDS011;13444;50.562;7.262;2023-04-10T03:46:03;12.53;;;8.97;;
25549;SDS011;13444;50.562;7.262;2023-04-10T03:48:28;13.13;;;9.57;;
25549;SDS011;13444;50.562;7.262;2023-04-10T03:50:56;14.00;;;10.03;;
25549;SDS011;13444;50.562;7.262;2023-04-10T03:53:22;17.33;;;11.53;;
25549;SDS011;13444;50.562;7.262;2023-04-10T03:55:48;13.27;;;9.50;;
25549;SDS011;13444;50.562;7.262;2023-04-10T03:58:13;16.60;;;10.27;;
25549;SDS011;13444;50.562;7.262;2023-04-10T04:00:39;12.43;;;9.20;;
25549;SDS011;13444;50.562;7.262;2023-04-10T04:03:05;13.83;;;9.60;;
25549;SDS011;13444;50.562;7.262;2023-04-10T04:05:30;12.23;;;9.57;;
25549;SDS011;13444;50.562;7.262;2023-04-10T04:07:56;14.60;;;10.03;;
25549;SDS011;13444;50.562;7.262;2023-04-10T04:10:22;12.67;;;9.90;;
25549;SDS011;13444;50.562;7.262;2023-04-10T04:12:48;14.00;;;9.57;;
25549;SDS011;13444;50.562;7.262;2023-04-10T04:15:14;14.77;;;10.10;;
25549;SDS011;13444;50.562;7.262;2023-04-10T04:17:40;16.57;;;9.47;;
25549;SDS011;13444;50.562;7.262;2023-04-10T04:20:06;13.00;;;9.83;;
25549;SDS011;13444;50.562;7.262;2023-04-10T04:22:32;12.83;;;9.17;;
25549;SDS011;13444;50.562;7.262;2023-04-10T04:24:57;13.50;;;9.37;;
25549;SDS011;13444;50.562;7.262;2023-04-10T04:27:23;11.87;;;8.63;;
25549;SDS011;13444;50.562;7.262;2023-04-10T04:29:49;13.57;;;9.10;;
25549;SDS011;13444;50.562;7.262;2023-04-10T04:32:14;13.17;;;8.77;;
25549;SDS011;13444;50.562;7.262;2023-04-10T04:34:40;12.37;;;8.87;;
25549;SDS011;13444;50.562;7.262;2023-04-10T04:37:06;11.40;;;8.23;;
25549;SDS011;13444;50.562;7.262;2023-04-10T04:39:31;11.43;;;9.27;;
25549;SDS011;13444;50.562;7.262;2023-04-10T04:41:57;12.93;;;9.07;;
25549;SDS011;13444;50.562;7.262;2023-04-10T04:44:22;11.63;;;8.83;;
25549;SDS011;13444;50.562;7.262;2023-04-10T04:46:48;11.73;;;8.63;;
25549;SDS011;13444;50.562;7.262;2023-04-10T04:49:13;12.63;;;8.90;;
25549;SDS011;13444;50.562;7.262;2023-04-10T04:51:39;13.17;;;9.53;;
25549;SDS011;13444;50.562;7.262;2023-04-10T04:54:05;15.20;;;9.90;;
25549;SDS011;13444;50.562;7.262;2023-04-10T04:56:30;13.43;;;9.40;;
25549;SDS011;13444;50.562;7.262;2023-04-10T04:58:55;12.60;;;9.23;;
25549;SDS011;13444;50.562;7.262;2023-04-10T05:01:21;14.33;;;9.73;;
25549;SDS011;13444;50.562;7.262;2023-04-10T05:03:47;11.93;;;8.63;;
25549;SDS011;13444;50.562;7.262;2023-04-10T05:06:12;12.87;;;9.97;;
25549;SDS011;13444;50.562;7.262;2023-04-10T05:08:38;13.03;;;9.27;;
25549;SDS011;13444;50.562;7.262;2023-04-10T05:11:04;12.20;;;9.70;;
25549;SDS011;13444;50.562;7.262;2023-04-10T05:13:30;12.67;;;9.67;;
25549;SDS011;13444;50.562;7.262;2023-04-10T05:15:55;13.63;;;9.73;;
25549;SDS011;13444;50.562;7.262;2023-04-10T05:18:21;11.93;;;9.80;;
25549;SDS011;13444;50.562;7.262;2023-04-10T05:20:47;11.47;;;8.53;;
25549;SDS011;13444;50.562;7.262;2023-04-10T05:23:13;12.80;;;9.33;;
25549;SDS011;13444;50.562;7.262;2023-04-10T05:25:39;14.33;;;10.67;;
25549;SDS011;13444;50.562;7.262;2023-04-10T05:28:05;14.73;;;10.53;;
25549;SDS011;13444;50.562;7.262;2023-04-10T05:30:31;14.00;;;9.83;;
25549;SDS011;13444;50.562;7.262;2023-04-10T05:32:56;15.10;;;10.23;;
25549;SDS011;13444;50.562;7.262;2023-04-10T05:35:22;13.70;;;10.03;;
25549;SDS011;13444;50.562;7.262;2023-04-10T05:37:47;13.43;;;9.10;;
25549;SDS011;13444;50.562;7.262;2023-04-10T05:40:13;14.63;;;10.10;;
25549;SDS011;13444;50.562;7.262;2023-04-10T05:42:38;15.47;;;10.07;;
25549;SDS011;13444;50.562;7.262;2023-04-10T05:45:04;13.77;;;9.10;;
25549;SDS011;13444;50.562;7.262;2023-04-10T05:47:30;15.30;;;10.20;;
25549;SDS011;13444;50.562;7.262;2023-04-10T05:49:56;14.20;;;9.70;;
25549;SDS011;13444;50.562;7.262;2023-04-10T05:52:21;16.37;;;11.03;;
25549;SDS011;13444;50.562;7.262;2023-04-10T05:54:47;15.20;;;10.90;;
25549;SDS011;13444;50.562;7.262;2023-04-10T05:57:12;14.17;;;10.57;;
25549;SDS011;13444;50.562;7.262;2023-04-10T05:59:38;12.43;;;9.93;;
25549;SDS011;13444;50.562;7.262;2023-04-10T06:02:03;15.30;;;10.57;;
25549;SDS011;13444;50.562;7.262;2023-04-10T06:04:31;15.00;;;10.17;;
25549;SDS011;13444;50.562;7.262;2023-04-10T06:06:56;17.83;;;10.40;;
25549;SDS011;13444;50.562;7.262;2023-04-10T06:09:22;13.77;;;10.20;;
25549;SDS011;13444;50.562;7.262;2023-04-10T06:11:47;16.20;;;10.73;;
25549;SDS011;13444;50.562;7.262;2023-04-10T06:14:13;15.30;;;10.67;;
25549;SDS011;13444;50.562;7.262;2023-04-10T06:16:38;14.77;;;10.90;;
25549;SDS011;13444;50.562;7.262;2023-04-10T06:19:04;14.43;;;10.20;;
25549;SDS011;13444;50.562;7.262;2023-04-10T06:21:30;14.67;;;10.37;;
25549;SDS011;13444;50.562;7.262;2023-04-10T06:23:56;15.10;;;10.87;;
25549;SDS011;13444;50.562;7.262;2023-04-10T06:26:21;15.03;;;10.53;;
25549;SDS011;13444;50.562;7.262;2023-04-10T06:28:48;14.67;;;10.30;;
25549;SDS011;13444;50.562;7.262;2023-04-10T06:31:13;14.67;;;10.67;;
25549;SDS011;13444;50.562;7.262;2023-04-10T06:33:39;12.93;;;10.27;;
25549;SDS011;13444;50.562;7.262;2023-04-10T06:36:04;14.53;;;10.37;;
25549;SDS011;13444;50.562;7.262;2023-04-10T06:38:30;13.83;;;10.53;;
25549;SDS011;13444;50.562;7.262;2023-04-10T06:40:58;14.90;;;10.27;;
25549;SDS011;13444;50.562;7.262;2023-04-10T06:43:23;14.37;;;10.60;;
25549;SDS011;13444;50.562;7.262;2023-04-10T06:45:49;15.83;;;10.80;;
25549;SDS011;13444;50.562;7.262;2023-04-10T06:48:14;13.77;;;11.20;;
25549;SDS011;13444;50.562;7.262;2023-04-10T06:50:40;15.40;;;10.93;;
25549;SDS011;13444;50.562;7.262;2023-04-10T06:53:05;15.30;;;10.30;;
25549;SDS011;13444;50.562;7.262;2023-04-10T06:55:31;14.60;;;10.60;;
25549;SDS011;13444;50.562;7.262;2023-04-10T06:57:56;14.87;;;10.70;;
25549;SDS011;13444;50.562;7.262;2023-04-10T07:00:22;13.90;;;9.83;;
25549;SDS011;13444;50.562;7.262;2023-04-10T07:02:48;12.63;;;9.63;;
25549;SDS011;13444;50.562;7.262;2023-04-10T07:05:14;15.57;;;10.53;;
25549;SDS011;13444;50.562;7.262;2023-04-10T07:07:40;17.83;;;9.90;;
25549;SDS011;13444;50.562;7.262;2023-04-10T07:10:06;13.90;;;9.40;;
25549;SDS011;13444;50.562;7.262;2023-04-10T07:12:32;12.57;;;9.63;;
25549;SDS011;13444;50.562;7.262;2023-04-10T07:14:58;13.00;;;9.47;;
25549;SDS011;13444;50.562;7.262;2023-04-10T07:17:23;13.43;;;9.57;;
25549;SDS011;13444;50.562;7.262;2023-04-10T07:19:49;15.17;;;9.97;;
25549;SDS011;13444;50.562;7.262;2023-04-10T07:22:15;14.33;;;10.23;;
25549;SDS011;13444;50.562;7.262;2023-04-10T07:24:41;12.60;;;9.23;;
25549;SDS011;13444;50.562;7.262;2023-04-10T07:27:06;12.77;;;9.47;;
25549;SDS011;13444;50.562;7.262;2023-04-10T07:29:32;12.77;;;9.47;;
25549;SDS011;13444;50.562;7.262;2023-04-10T07:31:58;11.70;;;8.90;;
25549;SDS011;13444;50.562;7.262;2023-04-10T07:34:24;12.88;;;9.27;;
25549;SDS011;13444;50.562;7.262;2023-04-10T07:36:50;11.10;;;8.53;;
25549;SDS011;13444;50.562;7.262;2023-04-10T07:39:15;14.97;;;9.27;;
25549;SDS011;13444;50.562;7.262;2023-04-10T07:41:41;12.57;;;9.75;;
25549;SDS011;13444;50.562;7.262;2023-04-10T07:44:07;11.13;;;8.85;;
25549;SDS011;13444;50.562;7.262;2023-04-10T07:46:33;11.68;;;8.57;;
25549;SDS011;13444;50.562;7.262;2023-04-10T07:48:58;10.07;;;8.20;;
25549;SDS011;13444;50.562;7.262;2023-04-10T07:51:24;9.93;;;8.55;;
25549;SDS011;13444;50.562;7.262;2023-04-10T07:53:50;13.73;;;8.88;;
25549;SDS011;13444;50.562;7.262;2023-04-10T07:56:18;13.05;;;8.85;;
25549;SDS011;13444;50.562;7.262;2023-04-10T07:58:44;9.88;;;7.95;;
25549;SDS011;13444;50.562;7.262;2023-04-10T08:01:10;11.52;;;8.57;;
25549;SDS011;13444;50.562;7.262;2023-04-10T08:03:37;10.68;;;8.63;;
25549;SDS011;13444;50.562;7.262;2023-04-10T08:06:07;11.20;;;7.63;;
25549;SDS011;13444;50.562;7.262;2023-04-10T08:08:34;14.50;;;8.88;;
25549;SDS011;13444;50.562;7.262;2023-04-10T08:11:00;11.55;;;9.00;;
25549;SDS011;13444;50.562;7.262;2023-04-10T08:13:26;10.93;;;8.40;;
25549;SDS011;13444;50.562;7.262;2023-04-10T08:15:52;9.60;;;7.70;;
25549;SDS011;13444;50.562;7.262;2023-04-10T08:18:17;12.63;;;8.70;;
25549;SDS011;13444;50.562;7.262;2023-04-10T08:20:43;10.95;;;8.15;;
25549;SDS011;13444;50.562;7.262;2023-04-10T08:23:08;12.07;;;8.95;;
25549;SDS011;13444;50.562;7.262;2023-04-10T08:25:34;10.80;;;8.32;;
25549;SDS011;13444;50.562;7.262;2023-04-10T08:27:59;9.55;;;7.85;;
25549;SDS011;13444;50.562;7.262;2023-04-10T08:30:25;9.70;;;7.78;;
25549;SDS011;13444;50.562;7.262;2023-04-10T08:32:50;11.15;;;8.30;;
25549;SDS011;13444;50.562;7.262;2023-04-10T08:35:16;9.85;;;7.97;;
25549;SDS011;13444;50.562;7.262;2023-04-10T08:37:41;9.18;;;7.72;;
25549;SDS011;13444;50.562;7.262;2023-04-10T08:40:07;10.70;;;8.00;;
25549;SDS011;13444;50.562;7.262;2023-04-10T08:42:33;9.38;;;6.75;;
25549;SDS011;13444;50.562;7.262;2023-04-10T08:44:59;11.80;;;8.40;;
25549;SDS011;13444;50.562;7.262;2023-04-10T08:47:25;9.43;;;7.18;;
25549;SDS011;13444;50.562;7.262;2023-04-10T08:49:53;12.02;;;8.70;;
25549;SDS011;13444;50.562;7.262;2023-04-10T08:52:20;10.40;;;7.57;;
25549;SDS011;13444;50.562;7.262;2023-04-10T08:54:48;11.10;;;8.05;;
25549;SDS011;13444;50.562;7.262;2023-04-10T08:57:17;10.38;;;7.53;;
25549;SDS011;13444;50.562;7.262;2023-04-10T08:59:45;9.38;;;7.90;;
25549;SDS011;13444;50.562;7.262;2023-04-10T09:02:11;8.73;;;7.25;;
25549;SDS011;13444;50.562;7.262;2023-04-10T09:04:37;10.02;;;7.43;;
25549;SDS011;13444;50.562;7.262;2023-04-10T09:07:02;8.50;;;6.53;;
25549;SDS011;13444;50.562;7.262;2023-04-10T09:09:28;9.90;;;6.32;;
25549;SDS011;13444;50.562;7.262;2023-04-10T09:11:57;7.82;;;6.22;;
25549;SDS011;13444;50.562;7.262;2023-04-10T09:14:34;7.38;;;6.25;;
25549;SDS011;13444;50.562;7.262;2023-04-10T09:17:19;7.63;;;6.15;;
25549;SDS011;13444;50.562;7.262;2023-04-10T09:19:49;7.20;;;6.13;;
25549;SDS011;13444;50.562;7.262;2023-04-10T09:22:17;7.53;;;6.07;;
25549;SDS011;13444;50.562;7.262;2023-04-10T09:24:59;7.22;;;6.03;;
25549;SDS011;13444;50.562;7.262;2023-04-10T09:27:27;7.78;;;5.90;;
25549;SDS011;13444;50.562;7.262;2023-04-10T09:30:00;7.80;;;6.22;;
25549;SDS011;13444;50.562;7.262;2023-04-10T09:32:44;6.43;;;5.53;;
25549;SDS011;13444;50.562;7.262;2023-04-10T09:35:14;6.22;;;5.55;;
25549;SDS011;13444;50.562;7.262;2023-04-10T09:37:40;7.05;;;5.40;;
25549;SDS011;13444;50.562;7.262;2023-04-10T09:40:23;7.93;;;5.60;;
25549;SDS011;13444;50.562;7.262;2023-04-10T09:42:49;5.40;;;4.68;;
25549;SDS011;13444;50.562;7.262;2023-04-10T09:45:15;5.55;;;4.70;;
25549;SDS011;13444;50.562;7.262;2023-04-10T09:48:00;5.70;;;4.82;;
25549;SDS011;13444;50.562;7.262;2023-04-10T09:50:33;5.35;;;4.72;;
25549;SDS011;13444;50.562;7.262;2023-04-10T09:53:03;5.60;;;4.85;;
25549;SDS011;13444;50.562;7.262;2023-04-10T09:55:28;5.78;;;4.32;;
25549;SDS011;13444;50.562;7.262;2023-04-10T09:57:54;6.78;;;4.72;;
25549;SDS011;13444;50.562;7.262;2023-04-10T10:00:22;7.18;;;4.15;;
25549;SDS011;13444;50.562;7.262;2023-04-10T10:02:48;5.45;;;4.70;;
25549;SDS011;13444;50.562;7.262;2023-04-10T10:05:14;4.68;;;4.00;;
25549;SDS011;13444;50.562;7.262;2023-04-10T10:07:40;4.70;;;4.22;;
25549;SDS011;13444;50.562;7.262;2023-04-10T10:10:06;5.05;;;4.30;;
25549;SDS011;13444;50.562;7.262;2023-04-10T10:12:34;4.80;;;3.92;;
25549;SDS011;13444;50.562;7.262;2023-04-10T10:15:13;6.47;;;4.38;;
25549;SDS011;13444;50.562;7.262;2023-04-10T10:20:27;5.03;;;4.20;;
25549;SDS011;13444;50.562;7.262;2023-04-10T10:22:56;5.18;;;3.83;;
25549;SDS011;13444;50.562;7.262;2023-04-10T10:25:22;4.50;;;3.58;;
25549;SDS011;13444;50.562;7.262;2023-04-10T10:27:48;3.92;;;3.55;;
25549;SDS011;13444;50.562;7.262;2023-04-10T10:30:17;6.47;;;3.80;;
25549;SDS011;13444;50.562;7.262;2023-04-10T10:32:44;5.68;;;3.70;;
25549;SDS011;13444;50.562;7.262;2023-04-10T10:35:10;3.83;;;3.50;;
25549;SDS011;13444;50.562;7.262;2023-04-10T10:37:36;4.60;;;4.05;;
25549;SDS011;13444;50.562;7.262;2023-04-10T10:40:11;4.82;;;3.60;;
25549;SDS011;13444;50.562;7.262;2023-04-10T10:42:45;3.80;;;3.40;;
25549;SDS011;13444;50.562;7.262;2023-04-10T10:45:20;4.80;;;3.38;;
25549;SDS011;13444;50.562;7.262;2023-04-10T10:47:51;4.07;;;3.10;;
25549;SDS011;13444;50.562;7.262;2023-04-10T10:50:18;3.78;;;3.38;;
25549;SDS011;13444;50.562;7.262;2023-04-10T10:57:56;3.47;;;3.17;;
25549;SDS011;13444;50.562;7.262;2023-04-10T11:00:23;3.72;;;3.17;;
25549;SDS011;13444;50.562;7.262;2023-04-10T11:05:55;3.38;;;2.90;;
25549;SDS011;13444;50.562;7.262;2023-04-10T11:19:00;5.30;;;2.70;;
25549;SDS011;13444;50.562;7.262;2023-04-10T11:21:27;3.13;;;2.83;;
25549;SDS011;13444;50.562;7.262;2023-04-10T11:31:44;3.65;;;3.28;;
25549;SDS011;13444;50.562;7.262;2023-04-10T11:34:11;3.55;;;2.95;;
25549;SDS011;13444;50.562;7.262;2023-04-10T11:36:37;4.43;;;3.50;;
25549;SDS011;13444;50.562;7.262;2023-04-10T11:39:08;3.17;;;2.75;;
25549;SDS011;13444;50.562;7.262;2023-04-10T11:41:38;4.70;;;3.70;;
25549;SDS011;13444;50.562;7.262;2023-04-10T11:44:06;3.22;;;2.92;;
25549;SDS011;13444;50.562;7.262;2023-04-10T11:46:35;4.72;;;3.17;;
25549;SDS011;13444;50.562;7.262;2023-04-10T11:49:02;3.53;;;3.08;;
25549;SDS011;13444;50.562;7.262;2023-04-10T11:51:29;3.33;;;2.33;;
25549;SDS011;13444;50.562;7.262;2023-04-10T11:56:41;2.40;;;2.20;;
25549;SDS011;13444;50.562;7.262;2023-04-10T11:59:08;2.63;;;2.42;;
25549;SDS011;13444;50.562;7.262;2023-04-10T12:01:35;4.35;;;2.60;;
25549;SDS011;13444;50.562;7.262;2023-04-10T12:04:01;3.80;;;2.53;;
25549;SDS011;13444;50.562;7.262;2023-04-10T12:06:27;2.97;;;2.00;;
25549;SDS011;13444;50.562;7.262;2023-04-10T12:08:53;3.08;;;2.40;;
25549;SDS011;13444;50.562;7.262;2023-04-10T12:11:20;3.17;;;2.35;;
25549;SDS011;13444;50.562;7.262;2023-04-10T12:13:47;2.22;;;2.03;;
25549;SDS011;13444;50.562;7.262;2023-04-10T12:16:16;4.28;;;2.55;;
25549;SDS011;13444;50.562;7.262;2023-04-10T12:18:42;2.88;;;2.50;;
25549;SDS011;13444;50.562;7.262;2023-04-10T12:21:09;3.67;;;2.50;;
25549;SDS011;13444;50.562;7.262;2023-04-10T12:23:36;3.45;;;2.55;;
25549;SDS011;13444;50.562;7.262;2023-04-10T12:26:12;3.22;;;2.25;;
25549;SDS011;13444;50.562;7.262;2023-04-10T12:28:40;4.18;;;2.17;;
25549;SDS011;13444;50.562;7.262;2023-04-10T12:31:13;2.75;;;2.42;;
25549;SDS011;13444;50.562;7.262;2023-04-10T12:33:38;3.60;;;2.85;;
25549;SDS011;13444;50.562;7.262;2023-04-10T12:36:04;2.35;;;2.15;;
25549;SDS011;13444;50.562;7.262;2023-04-10T12:38:40;2.10;;;1.90;;
25549;SDS011;13444;50.562;7.262;2023-04-10T12:41:07;2.45;;;2.25;;
25549;SDS011;13444;50.562;7.262;2023-04-10T12:43:36;3.13;;;2.10;;
25549;SDS011;13444;50.562;7.262;2023-04-10T12:46:07;2.63;;;2.05;;
25549;SDS011;13444;50.562;7.262;2023-04-10T12:48:34;3.78;;;2.10;;
25549;SDS011;13444;50.562;7.262;2023-04-10T12:51:00;2.38;;;2.17;;
25549;SDS011;13444;50.562;7.262;2023-04-10T12:53:26;3.08;;;2.17;;
25549;SDS011;13444;50.562;7.262;2023-04-10T12:55:56;2.47;;;2.25;;
25549;SDS011;13444;50.562;7.262;2023-04-10T12:58:29;2.63;;;2.28;;
25549;SDS011;13444;50.562;7.262;2023-04-10T13:00:58;2.50;;;2.30;;
25549;SDS011;13444;50.562;7.262;2023-04-10T13:03:28;2.80;;;2.30;;
25549;SDS011;13444;50.562;7.262;2023-04-10T13:05:53;3.30;;;2.63;;
25549;SDS011;13444;50.562;7.262;2023-04-10T13:08:20;3.88;;;2.67;;
25549;SDS011;13444;50.562;7.262;2023-04-10T13:10:46;3.90;;;2.40;;
25549;SDS011;13444;50.562;7.262;2023-04-10T13:13:13;2.55;;;2.35;;
25549;SDS011;13444;50.562;7.262;2023-04-10T13:15:38;2.50;;;2.20;;
25549;SDS011;13444;50.562;7.262;2023-04-10T13:18:05;2.30;;;2.10;;
25549;SDS011;13444;50.562;7.262;2023-04-10T13:20:31;2.50;;;2.30;;
25549;SDS011;13444;50.562;7.262;2023-04-10T13:22:58;2.63;;;2.22;;
25549;SDS011;13444;50.562;7.262;2023-04-10T13:25:23;3.85;;;2.17;;
25549;SDS011;13444;50.562;7.262;2023-04-10T13:27:51;2.80;;;2.20;;
25549;SDS011;13444;50.562;7.262;2023-04-10T13:30:16;2.13;;;1.92;;
25549;SDS011;13444;50.562;7.262;2023-04-10T13:32:42;2.90;;;2.25;;
25549;SDS011;13444;50.562;7.262;2023-04-10T13:35:07;3.65;;;2.30;;
25549;SDS011;13444;50.562;7.262;2023-04-10T13:37:33;2.83;;;2.55;;
25549;SDS011;13444;50.562;7.262;2023-04-10T13:39:58;2.10;;;1.90;;
25549;SDS011;13444;50.562;7.262;2023-04-10T13:42:24;2.20;;;2.00;;
25549;SDS011;13444;50.562;7.262;2023-04-10T13:44:50;3.05;;;2.60;;
25549;SDS011;13444;50.562;7.262;2023-04-10T13:47:15;2.83;;;2.17;;
25549;SDS011;13444;50.562;7.262;2023-04-10T13:49:41;3.33;;;2.03;;
25549;SDS011;13444;50.562;7.262;2023-04-10T13:52:06;2.45;;;2.00;;
25549;SDS011;13444;50.562;7.262;2023-04-10T13:54:32;4.05;;;2.05;;
25549;SDS011;13444;50.562;7.262;2023-04-10T13:56:57;2.67;;;2.38;;
25549;SDS011;13444;50.562;7.262;2023-04-10T13:59:23;3.22;;;2.13;;
25549;SDS011;13444;50.562;7.262;2023-04-10T14:01:48;4.57;;;1.90;;
25549;SDS011;13444;50.562;7.262;2023-04-10T14:04:16;2.00;;;1.80;;
25549;SDS011;13444;50.562;7.262;2023-04-10T14:06:42;4.78;;;4.28;;
25549;SDS011;13444;50.562;7.262;2023-04-10T14:09:07;2.63;;;1.85;;
25549;SDS011;13444;50.562;7.262;2023-04-10T14:11:33;2.55;;;1.85;;
25549;SDS011;13444;50.562;7.262;2023-04-10T14:13:59;2.25;;;1.85;;
25549;SDS011;13444;50.562;7.262;2023-04-10T14:16:24;4.18;;;3.75;;
25549;SDS011;13444;50.562;7.262;2023-04-10T14:18:50;6.22;;;5.50;;
25549;SDS011;13444;50.562;7.262;2023-04-10T14:21:15;4.45;;;2.58;;
25549;SDS011;13444;50.562;7.262;2023-04-10T14:23:41;2.13;;;1.60;;
25549;SDS011;13444;50.562;7.262;2023-04-10T14:26:06;1.48;;;1.38;;
25549;SDS011;13444;50.562;7.262;2023-04-10T14:28:32;1.95;;;1.70;;
25549;SDS011;13444;50.562;7.262;2023-04-10T14:30:58;2.28;;;1.95;;
25549;SDS011;13444;50.562;7.262;2023-04-10T14:33:24;3.20;;;1.73;;
25549;SDS011;13444;50.562;7.262;2023-04-10T14:35:50;2.47;;;1.70;;
25549;SDS011;13444;50.562;7.262;2023-04-10T14:38:16;4.85;;;1.80;;
25549;SDS011;13444;50.562;7.262;2023-04-10T14:40:42;3.38;;;1.70;;
25549;SDS011;13444;50.562;7.262;2023-04-10T14:43:09;1.70;;;1.60;;
25549;SDS011;13444;50.562;7.262;2023-04-10T14:45:35;2.03;;;1.73;;
25549;SDS011;13444;50.562;7.262;2023-04-10T14:48:01;3.50;;;1.52;;
25549;SDS011;13444;50.562;7.262;2023-04-10T14:50:26;3.42;;;1.77;;
25549;SDS011;13444;50.562;7.262;2023-04-10T14:52:53;2.08;;;1.80;;
25549;SDS011;13444;50.562;7.262;2023-04-10T14:55:19;3.17;;;1.88;;
25549;SDS011;13444;50.562;7.262;2023-04-10T14:57:44;2.05;;;1.73;;
25549;SDS011;13444;50.562;7.262;2023-04-10T15:00:10;1.92;;;1.73;;
25549;SDS011;13444;50.562;7.262;2023-04-10T15:02:36;3.95;;;2.10;;
25549;SDS011;13444;50.562;7.262;2023-04-10T15:05:02;2.63;;;1.83;;
25549;SDS011;13444;50.562;7.262;2023-04-10T15:07:28;2.83;;;1.90;;
25549;SDS011;13444;50.562;7.262;2023-04-10T15:09:57;3.28;;;2.13;;
25549;SDS011;13444;50.562;7.262;2023-04-10T15:12:23;5.22;;;2.05;;
25549;SDS011;13444;50.562;7.262;2023-04-10T15:14:49;2.60;;;1.95;;
25549;SDS011;13444;50.562;7.262;2023-04-10T15:17:15;1.85;;;1.58;;